sensor_id;sensor_type;location;lat;lon;timestamp;pressure;altitude;pressure_sealevel;temperature;humidity
27294;BME280;14785;52.556;13.430;2023-05-12T00:01:14;100943.44;;;17.53;100.00
27294;BME280;14785;52.556;13.430;2023-05-12T00:03:40;100936.09;;;17.68;100.00
27294;BME280;14785;52.556;13.430;2023-05-12T00:06:06;100930.03;;;17.39;100.00
27294;BME280;14785;52.556;13.430;2023-05-12T00:08:31;100942.06;;;17.22;100.00
27294;BME280;14785;52.556;13.430;2023-05-12T00:10:57;100942.84;;;17.37;100.00
27294;BME280;14785;52.556;13.430;2023-05-12T00:13:23;100935.56;;;17.52;100.00
27294;BME280;14785;52.556;13.430;2023-05-12T00:15:49;100942.66;;;17.38;100.00
27294;BME280;14785;52.556;13.430;2023-05-12T00:18:16;100935.88;;;17.42;100.00
27294;BME280;14785;52.556;13.430;2023-05-12T00:20:41;100933.69;;;17.31;100.00
27294;BME280;14785;52.556;13.430;2023-05-12T00:23:06;100933.03;;;17.29;100.00
27294;BME280;14785;52.556;13.430;2023-05-12T00:25:32;100938.50;;;17.14;100.00
27294;BME280;14785;52.556;13.430;2023-05-12T00:27:58;100934.84;;;17.22;100.00
27294;BME280;14785;52.556;13.430;2023-05-12T00:30:23;100941.44;;;17.20;100.00
27294;BME280;14785;52.556;13.430;2023-05-12T00:32:49;100939.66;;;17.05;100.00
27294;BME280;14785;52.556;13.430;2023-05-12T00:35:15;100938.81;;;17.26;100.00
27294;BME280;14785;52.556;13.430;2023-05-12T00:37:40;100934.56;;;17.38;100.00
27294;BME280;14785;52.556;13.430;2023-05-12T00:40:07;100938.03;;;17.11;100.00
27294;BME280;14785;52.556;13.430;2023-05-12T00:42:34;100933.56;;;17.39;100.00
27294;BME280;14785;52.556;13.430;2023-05-12T00:44:59;100942.63;;;16.96;100.00
27294;BME280;14785;52.556;13.430;2023-05-12T00:47:24;100944.72;;;17.36;100.00
27294;BME280;14785;52.556;13.430;2023-05-12T00:49:50;100942.91;;;17.01;100.00
27294;BME280;14785;52.556;13.430;2023-05-12T00:52:16;100947.88;;;16.83;100.00
27294;BME280;14785;52.556;13.430;2023-05-12T00:54:42;100946.41;;;16.80;100.00
27294;BME280;14785;52.556;13.430;2023-05-12T00:57:09;100941.47;;;16.84;100.00
27294;BME280;14785;52.556;13.430;2023-05-12T00:59:34;100947.50;;;16.50;100.00
27294;BME280;14785;52.556;13.430;2023-05-12T01:02:00;100944.50;;;16.60;100.00
27294;BME280;14785;52.556;13.430;2023-05-12T01:04:25;100943.06;;;16.78;100.00
27294;BME280;14785;52.556;13.430;2023-05-12T01:07:22;100943.75;;;16.66;100.00
27294;BME280;14785;52.556;13.430;2023-05-12T01:09:47;100950.78;;;16.67;100.00
27294;BME280;14785;52.556;13.430;2023-05-12T01:12:12;100953.53;;;16.88;100.00
27294;BME280;14785;52.556;13.430;2023-05-12T01:14:39;100951.63;;;17.03;100.00
27294;BME280;14785;52.556;13.430;2023-05-12T01:17:09;100947.00;;;16.97;100.00
27294;BME280;14785;52.556;13.430;2023-05-12T01:19:46;100953.34;;;16.75;100.00
27294;BME280;14785;52.556;13.430;2023-05-12T01:22:14;100952.81;;;16.65;100.00
27294;BME280;14785;52.556;13.430;2023-05-12T01:25:02;100954.91;;;16.84;100.00
27294;BME280;14785;52.556;13.430;2023-05-12T01:27:28;100957.44;;;16.71;100.00
27294;BME280;14785;52.556;13.430;2023-05-12T01:29:57;100956.88;;;16.75;100.00
27294;BME280;14785;52.556;13.430;2023-05-12T01:32:23;100953.44;;;16.81;100.00
27294;BME280;14785;52.556;13.430;2023-05-12T01:34:48;100956.84;;;16.90;100.00
27294;BME280;14785;52.556;13.430;2023-05-12T01:37:17;100960.94;;;16.86;100.00
27294;BME280;14785;52.556;13.430;2023-05-12T01:39:43;100962.13;;;17.19;100.00
27294;BME280;14785;52.556;13.430;2023-05-12T01:42:08;100964.59;;;16.64;100.00
27294;BME280;14785;52.556;13.430;2023-05-12T01:44:34;100956.41;;;16.86;100.00
27294;BME280;14785;52.556;13.430;2023-05-12T01:46:59;100960.06;;;16.50;100.00
27294;BME280;14785;52.556;13.430;2023-05-12T01:49:26;100957.06;;;16.74;100.00
27294;BME280;14785;52.556;13.430;2023-05-12T01:51:51;100970.53;;;16.59;100.00
27294;BME280;14785;52.556;13.430;2023-05-12T01:54:17;100962.75;;;17.00;100.00
27294;BME280;14785;52.556;13.430;2023-05-12T01:56:42;100963.72;;;17.13;100.00
27294;BME280;14785;52.556;13.430;2023-05-12T01:59:07;100954.94;;;17.05;100.00
27294;BME280;14785;52.556;13.430;2023-05-12T02:01:33;100960.16;;;16.92;100.00
27294;BME280;14785;52.556;13.430;2023-05-12T02:03:58;100958.72;;;16.75;100.00
27294;BME280;14785;52.556;13.430;2023-05-12T02:06:25;100953.72;;;16.72;100.00
27294;BME280;14785;52.556;13.430;2023-05-12T02:08:51;100968.97;;;16.36;100.00
27294;BME280;14785;52.556;13.430;2023-05-12T02:11:16;100968.50;;;16.47;100.00
27294;BME280;14785;52.556;13.430;2023-05-12T02:13:42;100968.84;;;16.00;100.00
27294;BME280;14785;52.556;13.430;2023-05-12T02:16:10;100969.88;;;15.99;100.00
27294;BME280;14785;52.556;13.430;2023-05-12T02:18:35;100976.72;;;16.02;100.00
27294;BME280;14785;52.556;13.430;2023-05-12T02:21:01;100978.63;;;15.79;100.00
27294;BME280;14785;52.556;13.430;2023-05-12T02:23:26;100974.31;;;15.92;100.00
27294;BME280;14785;52.556;13.430;2023-05-12T02:25:52;100978.41;;;16.03;100.00
27294;BME280;14785;52.556;13.430;2023-05-12T02:28:17;100978.03;;;16.06;100.00
27294;BME280;14785;52.556;13.430;2023-05-12T02:30:46;100986.09;;;16.49;100.00
27294;BME280;14785;52.556;13.430;2023-05-12T02:33:15;100987.81;;;15.99;100.00
27294;BME280;14785;52.556;13.430;2023-05-12T02:35:41;100985.91;;;16.07;100.00
27294;BME280;14785;52.556;13.430;2023-05-12T02:38:07;100986.91;;;16.21;100.00
27294;BME280;14785;52.556;13.430;2023-05-12T02:40:33;100986.66;;;16.59;100.00
27294;BME280;14785;52.556;13.430;2023-05-12T02:42:58;100991.34;;;16.72;100.00
27294;BME280;14785;52.556;13.430;2023-05-12T02:45:23;100985.78;;;16.01;100.00
27294;BME280;14785;52.556;13.430;2023-05-12T02:47:49;100987.97;;;16.49;100.00
27294;BME280;14785;52.556;13.430;2023-05-12T02:50:14;100988.69;;;16.57;100.00
27294;BME280;14785;52.556;13.430;2023-05-12T02:52:40;100984.06;;;16.51;100.00
27294;BME280;14785;52.556;13.430;2023-05-12T02:55:06;100991.94;;;16.53;100.00
27294;BME280;14785;52.556;13.430;2023-05-12T02:57:31;100992.47;;;16.63;100.00
27294;BME280;14785;52.556;13.430;2023-05-12T02:59:59;100987.09;;;16.63;100.00
27294;BME280;14785;52.556;13.430;2023-05-12T03:02:24;100984.13;;;16.72;100.00
27294;BME280;14785;52.556;13.430;2023-05-12T03:04:50;100981.16;;;16.82;100.00
27294;BME280;14785;52.556;13.430;2023-05-12T03:07:15;100978.19;;;16.77;100.00
27294;BME280;14785;52.556;13.430;2023-05-12T03:09:40;100985.13;;;16.86;100.00
27294;BME280;14785;52.556;13.430;2023-05-12T03:12:06;100987.34;;;16.82;100.00
27294;BME280;14785;52.556;13.430;2023-05-12T03:14:32;100984.84;;;16.81;100.00
27294;BME280;14785;52.556;13.430;2023-05-12T03:16:57;100984.84;;;16.81;100.00
27294;BME280;14785;52.556;13.430;2023-05-12T03:19:23;100983.19;;;16.80;100.00
27294;BME280;14785;52.556;13.430;2023-05-12T03:21:48;100992.34;;;16.85;100.00
27294;BME280;14785;52.556;13.430;2023-05-12T03:24:14;100991.34;;;16.72;100.00
27294;BME280;14785;52.556;13.430;2023-05-12T03:26:39;100986.34;;;16.69;100.00
27294;BME280;14785;52.556;13.430;2023-05-12T03:29:05;100998.41;;;16.73;100.00
27294;BME280;14785;52.556;13.430;2023-05-12T03:31:30;100998.56;;;16.57;100.00
27294;BME280;14785;52.556;13.430;2023-05-12T03:33:56;100987.09;;;16.34;100.00
27294;BME280;14785;52.556;13.430;2023-05-12T03:36:21;100995.59;;;16.23;100.00
27294;BME280;14785;52.556;13.430;2023-05-12T03:38:47;100988.66;;;16.43;100.00
27294;BME280;14785;52.556;13.430;2023-05-12T03:41:13;100992.66;;;16.18;100.00
27294;BME280;14785;52.556;13.430;2023-05-12T03:43:38;100994.69;;;16.16;100.00
27294;BME280;14785;52.556;13.430;2023-05-12T03:46:05;100995.31;;;16.03;100.00
27294;BME280;14785;52.556;13.430;2023-05-12T03:48:31;100995.22;;;16.26;100.00
27294;BME280;14785;52.556;13.430;2023-05-12T03:50:56;100995.44;;;16.39;100.00
27294;BME280;14785;52.556;13.430;2023-05-12T03:53:22;100999.13;;;16.38;100.00
27294;BME280;14785;52.556;13.430;2023-05-12T03:55:47;101002.53;;;16.03;100.00
27294;BME280;14785;52.556;13.430;2023-05-12T03:58:12;101003.16;;;16.05;100.00
27294;BME280;14785;52.556;13.430;2023-05-12T04:00:38;101002.41;;;15.82;100.00
27294;BME280;14785;52.556;13.430;2023-05-12T04:03:03;100996.41;;;15.94;100.00
27294;BME280;14785;52.556;13.430;2023-05-12T04:05:29;101003.47;;;15.27;100.00
27294;BME280;14785;52.556;13.430;2023-05-12T04:07:54;101005.53;;;15.48;100.00
27294;BME280;14785;52.556;13.430;2023-05-12T04:10:19;101001.13;;;15.55;100.00
27294;BME280;14785;52.556;13.430;2023-05-12T04:12:45;101011.34;;;15.29;100.00
27294;BME280;14785;52.556;13.430;2023-05-12T04:15:10;101005.97;;;15.06;100.00
27294;BME280;14785;52.556;13.430;2023-05-12T04:17:39;101009.19;;;15.02;100.00
27294;BME280;14785;52.556;13.430;2023-05-12T04:20:05;101003.06;;;14.85;100.00
27294;BME280;14785;52.556;13.430;2023-05-12T04:22:30;101005.06;;;14.91;100.00
27294;BME280;14785;52.556;13.430;2023-05-12T04:24:56;101005.31;;;14.74;100.00
27294;BME280;14785;52.556;13.430;2023-05-12T04:27:21;101010.06;;;14.94;100.00
27294;BME280;14785;52.556;13.430;2023-05-12T04:29:46;101010.34;;;14.69;100.00
27294;BME280;14785;52.556;13.430;2023-05-12T04:32:12;101012.41;;;14.59;100.00
27294;BME280;14785;52.556;13.430;2023-05-12T04:34:37;101015.91;;;14.59;100.00
27294;BME280;14785;52.556;13.430;2023-05-12T04:37:03;101013.56;;;14.56;100.00
27294;BME280;14785;52.556;13.430;2023-05-12T04:39:28;101016.13;;;14.88;100.00
27294;BME280;14785;52.556;13.430;2023-05-12T04:41:53;101014.03;;;14.98;100.00
27294;BME280;14785;52.556;13.430;2023-05-12T04:44:19;101021.09;;;14.99;100.00
27294;BME280;14785;52.556;13.430;2023-05-12T04:46:46;101025.41;;;15.08;100.00
27294;BME280;14785;52.556;13.430;2023-05-12T04:49:12;101023.59;;;15.01;100.00
27294;BME280;14785;52.556;13.430;2023-05-12T04:51:37;101028.19;;;14.84;100.00
27294;BME280;14785;52.556;13.430;2023-05-12T04:54:08;101025.03;;;15.11;100.00
27294;BME280;14785;52.556;13.430;2023-05-12T04:56:34;101028.72;;;15.10;100.00
27294;BME280;14785;52.556;13.430;2023-05-12T04:59:00;101032.38;;;14.87;100.00
27294;BME280;14785;52.556;13.430;2023-05-12T05:01:25;101036.81;;;15.02;100.00
27294;BME280;14785;52.556;13.430;2023-05-12T05:03:50;101037.66;;;15.25;100.00
27294;BME280;14785;52.556;13.430;2023-05-12T05:06:16;101036.22;;;15.46;100.00
27294;BME280;14785;52.556;13.430;2023-05-12T05:08:41;101039.44;;;15.33;100.00
27294;BME280;14785;52.556;13.430;2023-05-12T05:11:07;101044.34;;;15.29;100.00
27294;BME280;14785;52.556;13.430;2023-05-12T05:13:32;101047.97;;;15.37;100.00
27294;BME280;14785;52.556;13.430;2023-05-12T05:15:58;101049.38;;;15.32;100.00
27294;BME280;14785;52.556;13.430;2023-05-12T05:18:23;101049.81;;;15.36;100.00
27294;BME280;14785;52.556;13.430;2023-05-12T05:20:49;101053.38;;;15.28;100.00
27294;BME280;14785;52.556;13.430;2023-05-12T05:23:14;101053.94;;;15.55;100.00
27294;BME280;14785;52.556;13.430;2023-05-12T05:25:40;101055.22;;;15.81;100.00
27294;BME280;14785;52.556;13.430;2023-05-12T05:28:05;101049.16;;;16.02;100.00
27294;BME280;14785;52.556;13.430;2023-05-12T05:30:31;101053.53;;;16.03;100.00
27294;BME280;14785;52.556;13.430;2023-05-12T05:32:56;101051.34;;;16.21;100.00
27294;BME280;14785;52.556;13.430;2023-05-12T05:35:22;101053.72;;;16.16;100.00
27294;BME280;14785;52.556;13.430;2023-05-12T05:37:47;101052.44;;;16.12;100.00
27294;BME280;14785;52.556;13.430;2023-05-12T05:40:14;101053.69;;;16.53;100.00
27294;BME280;14785;52.556;13.430;2023-05-12T05:42:40;101060.69;;;16.39;100.00
27294;BME280;14785;52.556;13.430;2023-05-12T05:45:06;101063.34;;;16.47;100.00
27294;BME280;14785;52.556;13.430;2023-05-12T05:47:31;101065.09;;;16.69;100.00
27294;BME280;14785;52.556;13.430;2023-05-12T05:49:58;101061.00;;;16.59;100.00
27294;BME280;14785;52.556;13.430;2023-05-12T05:52:23;101065.63;;;16.65;100.00
27294;BME280;14785;52.556;13.430;2023-05-12T05:54:49;101076.38;;;16.65;100.00
27294;BME280;14785;52.556;13.430;2023-05-12T05:57:14;101068.50;;;16.78;100.00
27294;BME280;14785;52.556;13.430;2023-05-12T05:59:40;101073.41;;;16.89;100.00
27294;BME280;14785;52.556;13.430;2023-05-12T06:02:05;101072.00;;;16.93;100.00
27294;BME280;14785;52.556;13.430;2023-05-12T06:04:31;101078.47;;;17.13;100.00
27294;BME280;14785;52.556;13.430;2023-05-12T06:06:56;101084.03;;;17.11;100.00
27294;BME280;14785;52.556;13.430;2023-05-12T06:09:22;101073.19;;;17.05;100.00
27294;BME280;14785;52.556;13.430;2023-05-12T06:11:48;101077.75;;;17.04;100.00
27294;BME280;14785;52.556;13.430;2023-05-12T06:14:13;101085.88;;;17.26;100.00
27294;BME280;14785;52.556;13.430;2023-05-12T06:16:39;101080.50;;;17.82;100.00
27294;BME280;14785;52.556;13.430;2023-05-12T06:19:04;101092.59;;;17.72;100.00
27294;BME280;14785;52.556;13.430;2023-05-12T06:21:29;101082.44;;;17.32;100.00
27294;BME280;14785;52.556;13.430;2023-05-12T06:24:00;101091.13;;;17.34;100.00
27294;BME280;14785;52.556;13.430;2023-05-12T06:26:26;101090.66;;;17.45;100.00
27294;BME280;14785;52.556;13.430;2023-05-12T06:28:51;101092.59;;;18.14;100.00
27294;BME280;14785;52.556;13.430;2023-05-12T06:31:16;101095.31;;;17.57;100.00
27294;BME280;14785;52.556;13.430;2023-05-12T06:33:42;101102.25;;;17.66;100.00
27294;BME280;14785;52.556;13.430;2023-05-12T06:36:07;101100.22;;;17.89;100.00
27294;BME280;14785;52.556;13.430;2023-05-12T06:38:34;101098.28;;;18.04;100.00
27294;BME280;14785;52.556;13.430;2023-05-12T06:41:01;101101.88;;;17.90;100.00
27294;BME280;14785;52.556;13.430;2023-05-12T06:43:26;101101.28;;;17.95;100.00
27294;BME280;14785;52.556;13.430;2023-05-12T06:45:52;101104.63;;;18.18;100.00
27294;BME280;14785;52.556;13.430;2023-05-12T06:48:18;101103.22;;;18.01;100.00
27294;BME280;14785;52.556;13.430;2023-05-12T06:50:44;101102.75;;;18.39;100.00
27294;BME280;14785;52.556;13.430;2023-05-12T06:53:09;101099.78;;;18.34;100.00
27294;BME280;14785;52.556;13.430;2023-05-12T06:55:35;101098.78;;;18.69;100.00
27294;BME280;14785;52.556;13.430;2023-05-12T06:58:01;101102.47;;;18.34;100.00
27294;BME280;14785;52.556;13.430;2023-05-12T07:00:26;101097.13;;;18.68;100.00
27294;BME280;14785;52.556;13.430;2023-05-12T07:02:52;101094.69;;;18.73;100.00
27294;BME280;14785;52.556;13.430;2023-05-12T07:05:17;101099.44;;;19.12;100.00
27294;BME280;14785;52.556;13.430;2023-05-12T07:07:44;101098.56;;;18.98;100.00
27294;BME280;14785;52.556;13.430;2023-05-12T07:10:10;101107.22;;;19.28;100.00
27294;BME280;14785;52.556;13.430;2023-05-12T07:12:36;101103.19;;;19.18;98.74
27294;BME280;14785;52.556;13.430;2023-05-12T07:15:03;101106.19;;;19.36;97.83
27294;BME280;14785;52.556;13.430;2023-05-12T07:17:29;101098.09;;;18.88;100.00
27294;BME280;14785;52.556;13.430;2023-05-12T07:19:55;101108.13;;;19.08;100.00
27294;BME280;14785;52.556;13.430;2023-05-12T07:22:20;101102.84;;;19.27;100.00
27294;BME280;14785;52.556;13.430;2023-05-12T07:24:47;101105.63;;;19.47;99.40
27294;BME280;14785;52.556;13.430;2023-05-12T07:27:12;101103.97;;;19.05;100.00
27294;BME280;14785;52.556;13.430;2023-05-12T07:29:38;101105.78;;;18.98;100.00
27294;BME280;14785;52.556;13.430;2023-05-12T07:32:03;101105.34;;;19.29;100.00
27294;BME280;14785;52.556;13.430;2023-05-12T07:34:33;101107.41;;;19.27;99.43
27294;BME280;14785;52.556;13.430;2023-05-12T07:36:59;101112.50;;;19.56;98.74
27294;BME280;14785;52.556;13.430;2023-05-12T07:39:28;101104.84;;;19.66;97.38
27294;BME280;14785;52.556;13.430;2023-05-12T07:41:56;101108.78;;;19.63;96.43
27294;BME280;14785;52.556;13.430;2023-05-12T07:44:23;101108.78;;;19.70;96.13
27294;BME280;14785;52.556;13.430;2023-05-12T07:46:48;101108.69;;;19.31;95.37
27294;BME280;14785;52.556;13.430;2023-05-12T07:49:14;101111.22;;;19.52;95.67
27294;BME280;14785;52.556;13.430;2023-05-12T07:51:39;101107.91;;;19.50;95.01
27294;BME280;14785;52.556;13.430;2023-05-12T07:54:05;101109.63;;;19.70;94.59
27294;BME280;14785;52.556;13.430;2023-05-12T07:56:31;101107.16;;;20.01;93.92
27294;BME280;14785;52.556;13.430;2023-05-12T07:58:57;101110.22;;;19.66;95.57
27294;BME280;14785;52.556;13.430;2023-05-12T08:01:22;101107.19;;;19.95;95.36
27294;BME280;14785;52.556;13.430;2023-05-12T08:03:48;101110.47;;;19.84;94.47
27294;BME280;14785;52.556;13.430;2023-05-12T08:06:16;101109.25;;;19.93;92.03
27294;BME280;14785;52.556;13.430;2023-05-12T08:08:41;101105.13;;;20.36;89.84
27294;BME280;14785;52.556;13.430;2023-05-12T08:11:07;101108.84;;;20.09;89.87
27294;BME280;14785;52.556;13.430;2023-05-12T08:13:32;101111.53;;;20.09;90.75
27294;BME280;14785;52.556;13.430;2023-05-12T08:15:57;101114.22;;;19.96;90.81
27294;BME280;14785;52.556;13.430;2023-05-12T08:18:23;101115.53;;;20.32;88.21
27294;BME280;14785;52.556;13.430;2023-05-12T08:20:48;101114.72;;;20.19;87.83
27294;BME280;14785;52.556;13.430;2023-05-12T08:23:16;101107.19;;;20.47;87.68
27294;BME280;14785;52.556;13.430;2023-05-12T08:25:41;101109.66;;;20.55;85.78
27294;BME280;14785;52.556;13.430;2023-05-12T08:28:09;101109.66;;;20.55;85.97
27294;BME280;14785;52.556;13.430;2023-05-12T08:30:35;101117.19;;;20.14;86.25
27294;BME280;14785;52.556;13.430;2023-05-12T08:33:02;101116.34;;;20.33;84.11
27294;BME280;14785;52.556;13.430;2023-05-12T08:35:29;101105.56;;;20.46;83.95
27294;BME280;14785;52.556;13.430;2023-05-12T08:37:55;101109.69;;;20.42;82.59
27294;BME280;14785;52.556;13.430;2023-05-12T08:40:23;101105.97;;;20.36;82.22
27294;BME280;14785;52.556;13.430;2023-05-12T08:42:57;101110.47;;;20.68;79.98
27294;BME280;14785;52.556;13.430;2023-05-12T08:45:25;101106.72;;;20.83;78.94
27294;BME280;14785;52.556;13.430;2023-05-12T08:47:51;101114.03;;;20.62;77.81
27294;BME280;14785;52.556;13.430;2023-05-12T08:50:20;101108.84;;;20.54;75.73
27294;BME280;14785;52.556;13.430;2023-05-12T08:52:47;101116.91;;;20.80;74.07
27294;BME280;14785;52.556;13.430;2023-05-12T08:55:13;101107.72;;;20.88;75.09
27294;BME280;14785;52.556;13.430;2023-05-12T08:57:39;101103.78;;;20.91;73.90
27294;BME280;14785;52.556;13.430;2023-05-12T09:00:07;101106.47;;;20.97;73.87
27294;BME280;14785;52.556;13.430;2023-05-12T09:02:36;101106.69;;;21.02;73.58
27294;BME280;14785;52.556;13.430;2023-05-12T09:05:02;101112.81;;;21.35;72.01
27294;BME280;14785;52.556;13.430;2023-05-12T09:07:27;101101.66;;;21.12;70.83
27294;BME280;14785;52.556;13.430;2023-05-12T09:09:55;101105.31;;;21.37;66.87
27294;BME280;14785;52.556;13.430;2023-05-12T09:12:24;101099.56;;;21.14;69.49
27294;BME280;14785;52.556;13.430;2023-05-12T09:15:05;101107.03;;;21.19;66.84
27294;BME280;14785;52.556;13.430;2023-05-12T09:17:32;101101.00;;;21.17;67.72
27294;BME280;14785;52.556;13.430;2023-05-12T09:19:58;101109.84;;;21.43;64.54
27294;BME280;14785;52.556;13.430;2023-05-12T09:22:30;101109.47;;;21.33;60.62
27294;BME280;14785;52.556;13.430;2023-05-12T09:24:56;101097.97;;;21.44;59.87
27294;BME280;14785;52.556;13.430;2023-05-12T09:27:25;101099.81;;;21.50;61.54
27294;BME280;14785;52.556;13.430;2023-05-12T09:29:51;101103.88;;;21.28;61.47
27294;BME280;14785;52.556;13.430;2023-05-12T09:32:17;101098.44;;;21.66;61.80
27294;BME280;14785;52.556;13.430;2023-05-12T09:34:42;101108.25;;;22.04;61.96
27294;BME280;14785;52.556;13.430;2023-05-12T09:37:08;101105.22;;;21.50;61.32
27294;BME280;14785;52.556;13.430;2023-05-12T09:39:34;101101.09;;;21.41;61.04
27294;BME280;14785;52.556;13.430;2023-05-12T09:42:00;101106.97;;;21.32;60.13
27294;BME280;14785;52.556;13.430;2023-05-12T09:44:26;101102.84;;;21.29;60.85
27294;BME280;14785;52.556;13.430;2023-05-12T09:46:53;101100.69;;;21.38;61.50
27294;BME280;14785;52.556;13.430;2023-05-12T09:49:20;101099.25;;;21.73;63.41
27294;BME280;14785;52.556;13.430;2023-05-12T09:51:50;101094.50;;;21.68;61.28
27294;BME280;14785;52.556;13.430;2023-05-12T09:54:26;101092.75;;;21.49;60.01
27294;BME280;14785;52.556;13.430;2023-05-12T09:56:51;101093.53;;;21.56;55.89
27294;BME280;14785;52.556;13.430;2023-05-12T09:59:18;101090.97;;;21.61;55.35
27294;BME280;14785;52.556;13.430;2023-05-12T10:01:45;101104.78;;;21.53;56.08
27294;BME280;14785;52.556;13.430;2023-05-12T10:04:12;101096.53;;;22.10;55.87
27294;BME280;14785;52.556;13.430;2023-05-12T10:06:40;101098.63;;;22.08;54.38
27294;BME280;14785;52.556;13.430;2023-05-12T10:09:18;101105.16;;;22.25;55.66
27294;BME280;14785;52.556;13.430;2023-05-12T10:11:44;101098.72;;;22.44;55.72
27294;BME280;14785;52.556;13.430;2023-05-12T10:14:11;101092.97;;;22.34;54.96
27294;BME280;14785;52.556;13.430;2023-05-12T10:16:37;101090.09;;;22.72;53.96
27294;BME280;14785;52.556;13.430;2023-05-12T10:19:05;101101.19;;;22.52;54.81
27294;BME280;14785;52.556;13.430;2023-05-12T10:21:31;101095.69;;;22.77;54.69
27294;BME280;14785;52.556;13.430;2023-05-12T10:23:56;101090.41;;;22.64;54.13
27294;BME280;14785;52.556;13.430;2023-05-12T10:26:23;101084.16;;;23.18;53.47
27294;BME280;14785;52.556;13.430;2023-05-12T10:28:49;101086.97;;;23.59;52.44
27294;BME280;14785;52.556;13.430;2023-05-12T10:31:16;101095.91;;;23.48;50.92
27294;BME280;14785;52.556;13.430;2023-05-12T10:33:43;101093.41;;;23.76;51.93
27294;BME280;14785;52.556;13.430;2023-05-12T10:36:18;101085.94;;;24.01;49.93
27294;BME280;14785;52.556;13.430;2023-05-12T10:38:46;101075.47;;;24.62;48.33
27294;BME280;14785;52.556;13.430;2023-05-12T10:41:15;101078.19;;;24.39;47.81
27294;BME280;14785;52.556;13.430;2023-05-12T10:43:43;101081.84;;;24.21;48.83
27294;BME280;14785;52.556;13.430;2023-05-12T10:49:07;101087.38;;;24.61;48.56
27294;BME280;14785;52.556;13.430;2023-05-12T10:54:04;101067.78;;;25.22;46.97
27294;BME280;14785;52.556;13.430;2023-05-12T10:56:41;101080.06;;;26.08;44.14
27294;BME280;14785;52.556;13.430;2023-05-12T10:59:17;101081.31;;;25.89;44.79
27294;BME280;14785;52.556;13.430;2023-05-12T11:04:48;101085.00;;;26.45;42.34
27294;BME280;14785;52.556;13.430;2023-05-12T11:07:16;101088.59;;;26.83;41.51
27294;BME280;14785;52.556;13.430;2023-05-12T11:09:45;101087.63;;;27.59;41.09
27294;BME280;14785;52.556;13.430;2023-05-12T11:12:12;101074.72;;;28.08;41.11
27294;BME280;14785;52.556;13.430;2023-05-12T11:14:39;101073.69;;;27.34;43.05
27294;BME280;14785;52.556;13.430;2023-05-12T11:17:05;101081.19;;;26.46;42.90
27294;BME280;14785;52.556;13.430;2023-05-12T11:19:31;101081.34;;;26.39;43.33
27294;BME280;14785;52.556;13.430;2023-05-12T11:22:08;101063.78;;;27.54;42.57
27294;BME280;14785;52.556;13.430;2023-05-12T11:24:35;101063.53;;;28.14;40.45
27294;BME280;14785;52.556;13.430;2023-05-12T11:27:05;101084.38;;;28.20;39.65
27294;BME280;14785;52.556;13.430;2023-05-12T11:29:31;101080.78;;;28.46;37.75
27294;BME280;14785;52.556;13.430;2023-05-12T11:31:57;101084.25;;;28.05;37.24
27294;BME280;14785;52.556;13.430;2023-05-12T11:34:25;101080.44;;;28.38;41.85
27294;BME280;14785;52.556;13.430;2023-05-12T11:36:53;101080.66;;;28.68;36.29
27294;BME280;14785;52.556;13.430;2023-05-12T11:39:20;101075.75;;;28.75;37.52
27294;BME280;14785;52.556;13.430;2023-05-12T11:41:48;101075.50;;;28.35;36.52
27294;BME280;14785;52.556;13.430;2023-05-12T11:44:20;101079.66;;;28.84;37.20
27294;BME280;14785;52.556;13.430;2023-05-12T11:49:25;101081.47;;;28.68;35.21
27294;BME280;14785;52.556;13.430;2023-05-12T11:51:55;101093.44;;;29.71;39.30
27294;BME280;14785;52.556;13.430;2023-05-12T11:54:22;101084.03;;;29.46;42.93
27294;BME280;14785;52.556;13.430;2023-05-12T11:56:51;101087.44;;;29.89;36.76
27294;BME280;14785;52.556;13.430;2023-05-12T11:59:29;101087.28;;;29.38;37.08
27294;BME280;14785;52.556;13.430;2023-05-12T12:02:00;101090.44;;;29.92;36.76
27294;BME280;14785;52.556;13.430;2023-05-12T12:04:38;101091.28;;;30.08;35.90
27294;BME280;14785;52.556;13.430;2023-05-12T12:07:05;101078.06;;;30.70;35.93
27294;BME280;14785;52.556;13.430;2023-05-12T12:09:32;101094.44;;;31.00;34.81
27294;BME280;14785;52.556;13.430;2023-05-12T12:12:00;101093.47;;;30.56;39.35
27294;BME280;14785;52.556;13.430;2023-05-12T12:14:26;101090.03;;;31.09;34.68
27294;BME280;14785;52.556;13.430;2023-05-12T12:16:52;101087.13;;;30.65;37.36
27294;BME280;14785;52.556;13.430;2023-05-12T12:19:17;101093.69;;;30.84;33.71
27294;BME280;14785;52.556;13.430;2023-05-12T12:21:43;101094.28;;;28.26;37.68
27294;BME280;14785;52.556;13.430;2023-05-12T12:24:08;101097.34;;;27.98;37.68
27294;BME280;14785;52.556;13.430;2023-05-12T12:26:34;101094.78;;;28.18;37.28
27294;BME280;14785;52.556;13.430;2023-05-12T12:28:59;101091.03;;;29.17;35.73
27294;BME280;14785;52.556;13.430;2023-05-12T12:31:25;101092.16;;;29.16;35.53
27294;BME280;14785;52.556;13.430;2023-05-12T12:33:50;101083.31;;;30.16;36.80
27294;BME280;14785;52.556;13.430;2023-05-12T12:36:15;101090.72;;;28.57;35.70
27294;BME280;14785;52.556;13.430;2023-05-12T12:38:41;101089.03;;;29.85;38.96
27294;BME280;14785;52.556;13.430;2023-05-12T12:41:07;101082.84;;;29.22;34.34